createdAt,value
2023-02-07T00:02:29.098Z,100.00
2023-02-07T00:17:30.499Z,100.00
2023-02-07T00:32:31.995Z,100.00
2023-02-07T00:47:33.371Z,100.00
2023-02-07T01:02:35.884Z,100.00
2023-02-07T01:17:37.313Z,100.00
2023-02-07T01:32:38.737Z,100.00
2023-02-07T01:47:40.090Z,100.00
2023-02-07T02:02:41.524Z,100.00
2023-02-07T02:17:42.917Z,100.00
2023-02-07T02:32:44.551Z,100.00
2023-02-07T02:47:45.945Z,100.00
2023-02-07T03:02:47.558Z,100.00
2023-02-07T03:17:49.063Z,100.00
2023-02-07T03:32:50.837Z,100.00
2023-02-07T03:47:52.232Z,100.00
2023-02-07T04:02:53.621Z,100.00
2023-02-07T04:17:55.013Z,100.00
2023-02-07T04:32:56.398Z,100.00
2023-02-07T04:47:57.792Z,100.00
2023-02-07T05:03:00.654Z,100.00
2023-02-07T05:18:02.304Z,100.00
2023-02-07T05:33:03.689Z,100.00
2023-02-07T05:48:05.065Z,100.00
2023-02-07T06:03:06.506Z,100.00
2023-02-07T06:18:07.888Z,100.00
2023-02-07T06:33:09.251Z,100.00
2023-02-07T06:48:10.573Z,100.00
2023-02-07T07:03:11.982Z,100.00
2023-02-07T07:18:13.381Z,100.00
2023-02-07T07:33:14.769Z,100.00
2023-02-07T07:48:16.209Z,100.00
2023-02-07T08:03:17.659Z,100.00
2023-02-07T08:18:19.053Z,100.00
2023-02-07T08:33:20.478Z,100.00
2023-02-07T08:48:22.498Z,100.00
2023-02-07T09:03:23.876Z,100.00
2023-02-07T09:18:25.255Z,100.00
2023-02-07T09:33:26.666Z,100.00
2023-02-07T09:48:28.032Z,92.81
2023-02-07T10:03:31.908Z,79.66
2023-02-07T10:18:33.628Z,76.57
2023-02-07T10:33:35.092Z,79.68
2023-02-07T10:48:36.446Z,73.19
2023-02-07T11:03:38.298Z,67.12
2023-02-07T11:18:42.838Z,69.36
2023-02-07T11:33:47.702Z,63.70
2023-02-07T11:48:49.470Z,58.58
2023-02-07T12:03:52.721Z,56.00
2023-02-07T12:18:54.972Z,58.92
2023-02-07T12:33:56.512Z,55.27
2023-02-07T12:48:58.110Z,51.71
2023-02-07T13:03:59.478Z,51.76
2023-02-07T13:19:00.867Z,50.55
2023-02-07T13:34:03.315Z,48.94
2023-02-07T13:49:04.839Z,55.64
2023-02-07T14:04:15.600Z,57.51
2023-02-07T14:19:18.237Z,57.30
2023-02-07T14:34:22.863Z,60.34
2023-02-07T14:49:24.294Z,63.11
2023-02-07T15:04:25.755Z,63.49
2023-02-07T15:19:27.119Z,60.00
2023-02-07T15:34:31.783Z,61.98
2023-02-07T15:49:34.288Z,65.26
2023-02-07T16:04:36.749Z,75.23
2023-02-07T16:19:38.160Z,89.78
2023-02-07T16:34:53.813Z,100.00
2023-02-07T16:49:59.253Z,100.00
2023-02-07T17:20:47.763Z,100.00
2023-02-07T17:35:50.181Z,100.00
2023-02-07T17:50:55.999Z,100.00
2023-02-07T18:06:01.709Z,100.00
2023-02-07T18:21:03.138Z,100.00
2023-02-07T18:36:04.624Z,100.00
2023-02-07T18:51:09.301Z,100.00
2023-02-07T19:21:28.743Z,100.00
2023-02-07T19:36:32.420Z,100.00
2023-02-07T19:51:35.090Z,100.00
2023-02-07T20:06:36.564Z,100.00
2023-02-07T20:21:39.387Z,100.00
2023-02-07T20:36:42.282Z,100.00
2023-02-07T20:51:44.336Z,100.00
2023-02-07T21:06:45.760Z,100.00
2023-02-07T21:21:47.798Z,100.00
2023-02-07T21:36:49.216Z,100.00
2023-02-07T21:51:53.317Z,100.00
2023-02-07T22:06:54.709Z,100.00
2023-02-07T22:21:56.828Z,100.00
2023-02-07T22:36:58.216Z,100.00
2023-02-07T22:51:59.551Z,100.00
2023-02-07T23:07:00.917Z,100.00
2023-02-07T23:22:02.418Z,100.00
2023-02-07T23:37:03.829Z,100.00
2023-02-07T23:52:07.552Z,100.00
